sensor_id;sensor_type;location;lat;lon;timestamp;temperature;humidity
37702;DHT22;23548;51.196;6.838;2022-08-01T00:00:23;20.00;99.90
37702;DHT22;23548;51.196;6.838;2022-08-01T00:02:49;20.00;99.90
37702;DHT22;23548;51.196;6.838;2022-08-01T00:05:15;20.00;99.90
37702;DHT22;23548;51.196;6.838;2022-08-01T00:07:41;20.00;99.90
37702;DHT22;23548;51.196;6.838;2022-08-01T00:10:10;20.00;99.90
37702;DHT22;23548;51.196;6.838;2022-08-01T00:12:36;20.00;99.90
37702;DHT22;23548;51.196;6.838;2022-08-01T00:15:04;20.10;99.90
37702;DHT22;23548;51.196;6.838;2022-08-01T00:17:31;20.20;99.90
37702;DHT22;23548;51.196;6.838;2022-08-01T00:19:57;20.20;99.90
37702;DHT22;23548;51.196;6.838;2022-08-01T00:22:22;20.20;99.90
37702;DHT22;23548;51.196;6.838;2022-08-01T00:24:48;20.20;99.90
37702;DHT22;23548;51.196;6.838;2022-08-01T00:27:14;20.20;99.90
37702;DHT22;23548;51.196;6.838;2022-08-01T00:29:40;20.20;99.90
37702;DHT22;23548;51.196;6.838;2022-08-01T00:32:05;20.20;99.90
37702;DHT22;23548;51.196;6.838;2022-08-01T00:34:31;20.20;99.90
37702;DHT22;23548;51.196;6.838;2022-08-01T00:36:57;20.20;99.90
37702;DHT22;23548;51.196;6.838;2022-08-01T00:39:23;20.20;99.90
37702;DHT22;23548;51.196;6.838;2022-08-01T00:41:48;20.20;99.90
37702;DHT22;23548;51.196;6.838;2022-08-01T00:44:14;20.20;99.90
37702;DHT22;23548;51.196;6.838;2022-08-01T00:46:40;20.20;99.90
37702;DHT22;23548;51.196;6.838;2022-08-01T00:49:06;20.20;99.90
37702;DHT22;23548;51.196;6.838;2022-08-01T00:51:32;20.20;99.90
37702;DHT22;23548;51.196;6.838;2022-08-01T00:53:59;20.20;99.90
37702;DHT22;23548;51.196;6.838;2022-08-01T00:56:26;20.30;99.90
37702;DHT22;23548;51.196;6.838;2022-08-01T00:58:55;20.30;99.90
37702;DHT22;23548;51.196;6.838;2022-08-01T01:01:21;20.20;99.90
37702;DHT22;23548;51.196;6.838;2022-08-01T01:03:51;20.20;99.90
37702;DHT22;23548;51.196;6.838;2022-08-01T01:09:15;20.20;99.90
37702;DHT22;23548;51.196;6.838;2022-08-01T01:14:41;20.10;99.90
37702;DHT22;23548;51.196;6.838;2022-08-01T01:17:14;20.20;99.90
37702;DHT22;23548;51.196;6.838;2022-08-01T01:19:45;20.20;99.90
37702;DHT22;23548;51.196;6.838;2022-08-01T01:22:50;20.10;99.90
37702;DHT22;23548;51.196;6.838;2022-08-01T01:28:32;20.10;99.90
37702;DHT22;23548;51.196;6.838;2022-08-01T01:31:00;20.10;99.90
37702;DHT22;23548;51.196;6.838;2022-08-01T01:36:51;20.00;99.90
37702;DHT22;23548;51.196;6.838;2022-08-01T01:39:18;20.00;99.90
37702;DHT22;23548;51.196;6.838;2022-08-01T01:41:46;20.00;99.90
37702;DHT22;23548;51.196;6.838;2022-08-01T01:44:15;20.00;99.90
37702;DHT22;23548;51.196;6.838;2022-08-01T01:46:42;20.00;99.90
37702;DHT22;23548;51.196;6.838;2022-08-01T01:49:09;20.00;99.90
37702;DHT22;23548;51.196;6.838;2022-08-01T01:51:38;20.00;99.90
37702;DHT22;23548;51.196;6.838;2022-08-01T01:54:05;19.90;99.90
37702;DHT22;23548;51.196;6.838;2022-08-01T01:56:32;19.90;99.90
37702;DHT22;23548;51.196;6.838;2022-08-01T01:59:01;19.90;99.90
37702;DHT22;23548;51.196;6.838;2022-08-01T02:01:31;19.90;99.90
37702;DHT22;23548;51.196;6.838;2022-08-01T02:03:57;19.90;99.90
37702;DHT22;23548;51.196;6.838;2022-08-01T02:06:24;19.80;99.90
37702;DHT22;23548;51.196;6.838;2022-08-01T02:08:53;19.90;99.90
37702;DHT22;23548;51.196;6.838;2022-08-01T02:11:22;19.80;99.90
37702;DHT22;23548;51.196;6.838;2022-08-01T02:13:53;19.80;99.90
37702;DHT22;23548;51.196;6.838;2022-08-01T02:16:23;19.80;99.90
37702;DHT22;23548;51.196;6.838;2022-08-01T02:18:50;19.90;99.90
37702;DHT22;23548;51.196;6.838;2022-08-01T02:21:49;19.90;99.90
37702;DHT22;23548;51.196;6.838;2022-08-01T02:24:33;19.90;99.90
37702;DHT22;23548;51.196;6.838;2022-08-01T02:27:06;19.90;99.90
37702;DHT22;23548;51.196;6.838;2022-08-01T02:29:39;19.90;99.90
37702;DHT22;23548;51.196;6.838;2022-08-01T02:32:08;19.90;99.90
37702;DHT22;23548;51.196;6.838;2022-08-01T02:34:36;19.90;99.90
37702;DHT22;23548;51.196;6.838;2022-08-01T02:37:03;19.90;99.90
37702;DHT22;23548;51.196;6.838;2022-08-01T02:39:30;19.90;99.90
37702;DHT22;23548;51.196;6.838;2022-08-01T02:42:00;19.90;99.90
37702;DHT22;23548;51.196;6.838;2022-08-01T02:44:34;19.90;99.90
37702;DHT22;23548;51.196;6.838;2022-08-01T02:47:02;20.00;99.90
37702;DHT22;23548;51.196;6.838;2022-08-01T02:49:42;19.90;99.90
37702;DHT22;23548;51.196;6.838;2022-08-01T02:52:10;19.90;99.90
37702;DHT22;23548;51.196;6.838;2022-08-01T02:54:39;19.90;99.90
37702;DHT22;23548;51.196;6.838;2022-08-01T02:57:07;19.90;99.90
37702;DHT22;23548;51.196;6.838;2022-08-01T02:59:35;19.90;99.90
37702;DHT22;23548;51.196;6.838;2022-08-01T03:02:03;19.90;99.90
37702;DHT22;23548;51.196;6.838;2022-08-01T03:04:33;19.90;99.90
37702;DHT22;23548;51.196;6.838;2022-08-01T03:07:00;20.00;99.90
37702;DHT22;23548;51.196;6.838;2022-08-01T03:09:29;19.90;99.90
37702;DHT22;23548;51.196;6.838;2022-08-01T03:12:00;19.90;99.90
37702;DHT22;23548;51.196;6.838;2022-08-01T03:14:27;19.90;99.90
37702;DHT22;23548;51.196;6.838;2022-08-01T03:16:54;19.90;99.90
37702;DHT22;23548;51.196;6.838;2022-08-01T03:19:24;19.90;99.90
37702;DHT22;23548;51.196;6.838;2022-08-01T03:21:51;19.90;99.90
37702;DHT22;23548;51.196;6.838;2022-08-01T03:24:18;19.90;99.90
37702;DHT22;23548;51.196;6.838;2022-08-01T03:26:46;19.90;99.90
37702;DHT22;23548;51.196;6.838;2022-08-01T03:29:16;19.90;99.90
37702;DHT22;23548;51.196;6.838;2022-08-01T03:31:44;20.00;99.90
37702;DHT22;23548;51.196;6.838;2022-08-01T03:34:10;19.90;99.90
37702;DHT22;23548;51.196;6.838;2022-08-01T03:37:00;20.00;99.90
37702;DHT22;23548;51.196;6.838;2022-08-01T03:39:31;19.90;99.90
37702;DHT22;23548;51.196;6.838;2022-08-01T03:42:05;20.00;99.90
37702;DHT22;23548;51.196;6.838;2022-08-01T03:44:35;20.00;99.90
37702;DHT22;23548;51.196;6.838;2022-08-01T03:47:06;20.00;99.90
37702;DHT22;23548;51.196;6.838;2022-08-01T03:49:38;20.00;99.90
37702;DHT22;23548;51.196;6.838;2022-08-01T03:52:07;20.00;99.90
37702;DHT22;23548;51.196;6.838;2022-08-01T03:54:36;20.00;99.90
37702;DHT22;23548;51.196;6.838;2022-08-01T03:57:04;20.00;99.90
37702;DHT22;23548;51.196;6.838;2022-08-01T03:59:31;20.00;99.90
37702;DHT22;23548;51.196;6.838;2022-08-01T04:01:58;20.00;99.90
37702;DHT22;23548;51.196;6.838;2022-08-01T04:04:24;20.00;99.90
37702;DHT22;23548;51.196;6.838;2022-08-01T04:06:50;19.90;99.90
37702;DHT22;23548;51.196;6.838;2022-08-01T04:09:20;19.90;99.90
37702;DHT22;23548;51.196;6.838;2022-08-01T04:11:47;19.90;99.90
37702;DHT22;23548;51.196;6.838;2022-08-01T04:14:13;19.90;99.90
37702;DHT22;23548;51.196;6.838;2022-08-01T04:16:39;19.90;99.90
37702;DHT22;23548;51.196;6.838;2022-08-01T04:19:04;20.00;99.90
37702;DHT22;23548;51.196;6.838;2022-08-01T04:21:34;19.90;99.90
37702;DHT22;23548;51.196;6.838;2022-08-01T04:24:03;20.00;99.90
37702;DHT22;23548;51.196;6.838;2022-08-01T04:26:32;20.00;99.90
37702;DHT22;23548;51.196;6.838;2022-08-01T04:29:01;19.90;99.90
37702;DHT22;23548;51.196;6.838;2022-08-01T04:31:28;19.90;99.90
37702;DHT22;23548;51.196;6.838;2022-08-01T04:33:55;20.00;99.90
37702;DHT22;23548;51.196;6.838;2022-08-01T04:36:23;20.00;99.90
37702;DHT22;23548;51.196;6.838;2022-08-01T04:38:57;20.00;99.90
37702;DHT22;23548;51.196;6.838;2022-08-01T04:41:26;20.00;99.90
37702;DHT22;23548;51.196;6.838;2022-08-01T04:43:52;20.00;99.90
37702;DHT22;23548;51.196;6.838;2022-08-01T04:46:20;20.10;99.90
37702;DHT22;23548;51.196;6.838;2022-08-01T04:48:47;20.10;99.90
37702;DHT22;23548;51.196;6.838;2022-08-01T04:51:17;20.10;99.90
37702;DHT22;23548;51.196;6.838;2022-08-01T04:53:44;20.10;99.90
37702;DHT22;23548;51.196;6.838;2022-08-01T04:56:11;20.10;99.90
37702;DHT22;23548;51.196;6.838;2022-08-01T04:58:39;20.20;99.90
37702;DHT22;23548;51.196;6.838;2022-08-01T05:01:06;20.10;99.90
37702;DHT22;23548;51.196;6.838;2022-08-01T05:03:32;20.20;99.90
37702;DHT22;23548;51.196;6.838;2022-08-01T05:05:58;20.20;99.90
37702;DHT22;23548;51.196;6.838;2022-08-01T05:08:24;20.10;99.90
37702;DHT22;23548;51.196;6.838;2022-08-01T05:10:50;20.20;99.90
37702;DHT22;23548;51.196;6.838;2022-08-01T05:13:15;20.10;99.90
37702;DHT22;23548;51.196;6.838;2022-08-01T05:15:41;20.10;99.90
37702;DHT22;23548;51.196;6.838;2022-08-01T05:18:07;20.10;99.90
37702;DHT22;23548;51.196;6.838;2022-08-01T05:20:34;20.10;99.90
37702;DHT22;23548;51.196;6.838;2022-08-01T05:22:59;20.10;99.90
37702;DHT22;23548;51.196;6.838;2022-08-01T05:25:25;20.10;99.90
37702;DHT22;23548;51.196;6.838;2022-08-01T05:27:51;20.10;99.90
37702;DHT22;23548;51.196;6.838;2022-08-01T05:30:17;20.10;99.90
37702;DHT22;23548;51.196;6.838;2022-08-01T05:32:42;20.10;99.90
37702;DHT22;23548;51.196;6.838;2022-08-01T05:35:08;20.10;99.90
37702;DHT22;23548;51.196;6.838;2022-08-01T05:37:34;20.20;99.90
37702;DHT22;23548;51.196;6.838;2022-08-01T05:40:00;20.30;99.90
37702;DHT22;23548;51.196;6.838;2022-08-01T05:42:26;20.30;99.90
37702;DHT22;23548;51.196;6.838;2022-08-01T05:44:52;20.40;99.90
37702;DHT22;23548;51.196;6.838;2022-08-01T05:47:18;20.50;99.90
37702;DHT22;23548;51.196;6.838;2022-08-01T05:49:44;20.70;99.90
37702;DHT22;23548;51.196;6.838;2022-08-01T05:52:11;20.80;99.90
37702;DHT22;23548;51.196;6.838;2022-08-01T05:54:36;20.70;99.90
37702;DHT22;23548;51.196;6.838;2022-08-01T05:57:02;20.80;99.90
37702;DHT22;23548;51.196;6.838;2022-08-01T05:59:29;20.80;99.90
37702;DHT22;23548;51.196;6.838;2022-08-01T06:01:55;20.80;99.90
37702;DHT22;23548;51.196;6.838;2022-08-01T06:04:20;20.80;99.90
37702;DHT22;23548;51.196;6.838;2022-08-01T06:06:47;20.90;99.90
37702;DHT22;23548;51.196;6.838;2022-08-01T06:09:12;20.90;99.90
37702;DHT22;23548;51.196;6.838;2022-08-01T06:11:38;20.90;99.90
37702;DHT22;23548;51.196;6.838;2022-08-01T06:14:04;20.90;99.90
37702;DHT22;23548;51.196;6.838;2022-08-01T06:16:30;21.00;99.90
37702;DHT22;23548;51.196;6.838;2022-08-01T06:18:56;21.00;99.90
37702;DHT22;23548;51.196;6.838;2022-08-01T06:21:21;21.00;99.90
37702;DHT22;23548;51.196;6.838;2022-08-01T06:23:47;20.80;99.90
37702;DHT22;23548;51.196;6.838;2022-08-01T06:26:13;20.90;99.90
37702;DHT22;23548;51.196;6.838;2022-08-01T06:28:39;21.00;99.90
37702;DHT22;23548;51.196;6.838;2022-08-01T06:31:05;21.00;99.90
37702;DHT22;23548;51.196;6.838;2022-08-01T06:33:31;20.90;99.90
37702;DHT22;23548;51.196;6.838;2022-08-01T06:35:56;21.10;99.90
37702;DHT22;23548;51.196;6.838;2022-08-01T06:38:22;21.20;99.90
37702;DHT22;23548;51.196;6.838;2022-08-01T06:40:49;21.30;99.90
37702;DHT22;23548;51.196;6.838;2022-08-01T06:43:15;21.40;99.90
37702;DHT22;23548;51.196;6.838;2022-08-01T06:45:41;21.40;99.90
37702;DHT22;23548;51.196;6.838;2022-08-01T06:48:07;21.20;99.90
37702;DHT22;23548;51.196;6.838;2022-08-01T06:50:33;21.20;99.90
37702;DHT22;23548;51.196;6.838;2022-08-01T06:53:01;21.20;99.90
37702;DHT22;23548;51.196;6.838;2022-08-01T06:55:26;21.40;99.90
37702;DHT22;23548;51.196;6.838;2022-08-01T06:57:53;21.60;99.90
37702;DHT22;23548;51.196;6.838;2022-08-01T07:00:21;22.10;99.90
37702;DHT22;23548;51.196;6.838;2022-08-01T07:02:52;22.50;99.90
37702;DHT22;23548;51.196;6.838;2022-08-01T07:05:18;22.70;99.90
37702;DHT22;23548;51.196;6.838;2022-08-01T07:07:43;22.30;99.90
37702;DHT22;23548;51.196;6.838;2022-08-01T07:10:10;22.20;99.90
37702;DHT22;23548;51.196;6.838;2022-08-01T07:12:36;22.20;99.90
37702;DHT22;23548;51.196;6.838;2022-08-01T07:15:07;22.50;99.90
37702;DHT22;23548;51.196;6.838;2022-08-01T07:17:37;22.50;99.90
37702;DHT22;23548;51.196;6.838;2022-08-01T07:20:03;22.70;99.90
37702;DHT22;23548;51.196;6.838;2022-08-01T07:22:29;22.80;99.90
37702;DHT22;23548;51.196;6.838;2022-08-01T07:24:55;22.70;99.90
37702;DHT22;23548;51.196;6.838;2022-08-01T07:27:21;22.70;99.90
37702;DHT22;23548;51.196;6.838;2022-08-01T07:29:46;22.60;99.90
37702;DHT22;23548;51.196;6.838;2022-08-01T07:32:12;22.60;99.90
37702;DHT22;23548;51.196;6.838;2022-08-01T07:34:38;22.60;99.90
37702;DHT22;23548;51.196;6.838;2022-08-01T07:37:03;22.70;99.90
37702;DHT22;23548;51.196;6.838;2022-08-01T07:39:29;22.90;99.90
37702;DHT22;23548;51.196;6.838;2022-08-01T07:41:55;23.30;99.90
37702;DHT22;23548;51.196;6.838;2022-08-01T07:44:21;23.30;99.90
37702;DHT22;23548;51.196;6.838;2022-08-01T07:46:46;23.40;99.90
37702;DHT22;23548;51.196;6.838;2022-08-01T07:49:12;23.20;99.90
37702;DHT22;23548;51.196;6.838;2022-08-01T07:51:38;23.20;99.90
37702;DHT22;23548;51.196;6.838;2022-08-01T07:54:03;23.50;99.90
37702;DHT22;23548;51.196;6.838;2022-08-01T07:56:29;23.70;99.90
37702;DHT22;23548;51.196;6.838;2022-08-01T07:58:55;23.60;99.90
37702;DHT22;23548;51.196;6.838;2022-08-01T08:01:20;23.70;99.90
37702;DHT22;23548;51.196;6.838;2022-08-01T08:03:47;23.80;99.90
37702;DHT22;23548;51.196;6.838;2022-08-01T08:06:12;23.80;99.90
37702;DHT22;23548;51.196;6.838;2022-08-01T08:08:39;23.80;99.90
37702;DHT22;23548;51.196;6.838;2022-08-01T08:11:04;23.90;99.90
37702;DHT22;23548;51.196;6.838;2022-08-01T08:13:30;23.80;99.90
37702;DHT22;23548;51.196;6.838;2022-08-01T08:15:56;23.60;99.90
37702;DHT22;23548;51.196;6.838;2022-08-01T08:18:23;23.70;99.90
37702;DHT22;23548;51.196;6.838;2022-08-01T08:20:49;23.90;99.90
37702;DHT22;23548;51.196;6.838;2022-08-01T08:23:15;24.20;99.90
37702;DHT22;23548;51.196;6.838;2022-08-01T08:25:59;23.50;99.90
37702;DHT22;23548;51.196;6.838;2022-08-01T08:28:25;23.50;99.90
37702;DHT22;23548;51.196;6.838;2022-08-01T08:30:51;23.80;99.90
37702;DHT22;23548;51.196;6.838;2022-08-01T08:33:18;23.80;99.90
37702;DHT22;23548;51.196;6.838;2022-08-01T08:35:44;23.80;99.90
37702;DHT22;23548;51.196;6.838;2022-08-01T08:38:09;23.80;99.90
37702;DHT22;23548;51.196;6.838;2022-08-01T08:40:36;23.70;99.90
37702;DHT22;23548;51.196;6.838;2022-08-01T08:43:04;23.90;99.90
37702;DHT22;23548;51.196;6.838;2022-08-01T08:45:31;24.50;99.90
37702;DHT22;23548;51.196;6.838;2022-08-01T08:47:57;24.80;99.90
37702;DHT22;23548;51.196;6.838;2022-08-01T08:50:25;24.80;99.90
37702;DHT22;23548;51.196;6.838;2022-08-01T08:52:53;24.80;99.90
37702;DHT22;23548;51.196;6.838;2022-08-01T08:55:20;24.80;99.90
37702;DHT22;23548;51.196;6.838;2022-08-01T08:57:47;25.00;99.90
37702;DHT22;23548;51.196;6.838;2022-08-01T09:00:14;25.20;99.90
37702;DHT22;23548;51.196;6.838;2022-08-01T09:02:42;25.40;99.90
37702;DHT22;23548;51.196;6.838;2022-08-01T09:05:09;25.50;99.90
37702;DHT22;23548;51.196;6.838;2022-08-01T09:07:35;25.50;99.90
37702;DHT22;23548;51.196;6.838;2022-08-01T09:10:01;25.40;99.90
37702;DHT22;23548;51.196;6.838;2022-08-01T09:12:27;25.50;99.90
37702;DHT22;23548;51.196;6.838;2022-08-01T09:14:52;25.50;99.90
37702;DHT22;23548;51.196;6.838;2022-08-01T09:17:19;25.30;99.90
37702;DHT22;23548;51.196;6.838;2022-08-01T09:19:50;24.50;99.90
37702;DHT22;23548;51.196;6.838;2022-08-01T09:22:21;25.00;99.90
37702;DHT22;23548;51.196;6.838;2022-08-01T09:25:09;25.00;99.90
37702;DHT22;23548;51.196;6.838;2022-08-01T09:27:38;25.40;99.90
37702;DHT22;23548;51.196;6.838;2022-08-01T09:30:16;25.50;99.90
37702;DHT22;23548;51.196;6.838;2022-08-01T09:33:02;25.10;99.90
37702;DHT22;23548;51.196;6.838;2022-08-01T09:35:33;25.20;99.90
37702;DHT22;23548;51.196;6.838;2022-08-01T09:38:22;25.30;99.90
37702;DHT22;23548;51.196;6.838;2022-08-01T09:40:56;25.70;99.90
37702;DHT22;23548;51.196;6.838;2022-08-01T09:43:25;26.10;99.90
37702;DHT22;23548;51.196;6.838;2022-08-01T09:45:51;26.30;99.90
37702;DHT22;23548;51.196;6.838;2022-08-01T09:48:19;26.30;99.90
37702;DHT22;23548;51.196;6.838;2022-08-01T09:50:49;25.90;99.90
37702;DHT22;23548;51.196;6.838;2022-08-01T09:53:16;25.70;99.90
37702;DHT22;23548;51.196;6.838;2022-08-01T09:55:43;25.70;99.90
37702;DHT22;23548;51.196;6.838;2022-08-01T09:58:10;25.50;99.90
37702;DHT22;23548;51.196;6.838;2022-08-01T10:00:38;25.40;99.90
37702;DHT22;23548;51.196;6.838;2022-08-01T10:03:21;25.70;99.90
37702;DHT22;23548;51.196;6.838;2022-08-01T10:05:48;25.90;99.90
37702;DHT22;23548;51.196;6.838;2022-08-01T10:08:14;25.90;99.90
37702;DHT22;23548;51.196;6.838;2022-08-01T10:10:40;25.90;99.90
37702;DHT22;23548;51.196;6.838;2022-08-01T10:13:07;26.20;99.90
37702;DHT22;23548;51.196;6.838;2022-08-01T10:15:34;26.20;99.90
37702;DHT22;23548;51.196;6.838;2022-08-01T10:18:02;25.50;99.90
37702;DHT22;23548;51.196;6.838;2022-08-01T10:20:32;25.80;99.90
37702;DHT22;23548;51.196;6.838;2022-08-01T10:23:02;25.90;99.90
37702;DHT22;23548;51.196;6.838;2022-08-01T10:25:33;26.00;99.90
37702;DHT22;23548;51.196;6.838;2022-08-01T10:27:59;25.60;99.90
37702;DHT22;23548;51.196;6.838;2022-08-01T10:30:26;25.50;99.90
37702;DHT22;23548;51.196;6.838;2022-08-01T10:32:52;25.00;99.90
37702;DHT22;23548;51.196;6.838;2022-08-01T10:35:19;25.00;99.90
37702;DHT22;23548;51.196;6.838;2022-08-01T10:37:46;25.30;99.90
37702;DHT22;23548;51.196;6.838;2022-08-01T10:40:15;25.60;99.90
37702;DHT22;23548;51.196;6.838;2022-08-01T10:42:44;25.70;99.90
37702;DHT22;23548;51.196;6.838;2022-08-01T10:45:13;26.20;99.90
37702;DHT22;23548;51.196;6.838;2022-08-01T10:47:53;26.20;99.90
37702;DHT22;23548;51.196;6.838;2022-08-01T10:50:29;26.30;99.90
37702;DHT22;23548;51.196;6.838;2022-08-01T10:53:16;26.60;99.90
37702;DHT22;23548;51.196;6.838;2022-08-01T10:55:52;26.30;99.90
37702;DHT22;23548;51.196;6.838;2022-08-01T10:58:31;26.00;99.90
37702;DHT22;23548;51.196;6.838;2022-08-01T11:01:22;25.90;99.90
37702;DHT22;23548;51.196;6.838;2022-08-01T11:09:05;26.60;99.90
37702;DHT22;23548;51.196;6.838;2022-08-01T11:11:31;26.50;99.90
37702;DHT22;23548;51.196;6.838;2022-08-01T11:16:41;25.90;99.90
37702;DHT22;23548;51.196;6.838;2022-08-01T11:19:07;26.10;99.90
37702;DHT22;23548;51.196;6.838;2022-08-01T11:27:29;25.90;99.90
37702;DHT22;23548;51.196;6.838;2022-08-01T11:32:48;26.50;99.90
37702;DHT22;23548;51.196;6.838;2022-08-01T11:35:15;26.80;99.90
37702;DHT22;23548;51.196;6.838;2022-08-01T11:37:40;26.70;99.90
37702;DHT22;23548;51.196;6.838;2022-08-01T11:42:46;25.80;99.90
37702;DHT22;23548;51.196;6.838;2022-08-01T11:45:12;25.70;99.90
37702;DHT22;23548;51.196;6.838;2022-08-01T11:47:45;25.60;99.90
37702;DHT22;23548;51.196;6.838;2022-08-01T11:50:31;26.20;99.90
37702;DHT22;23548;51.196;6.838;2022-08-01T11:53:07;26.40;99.40
37702;DHT22;23548;51.196;6.838;2022-08-01T11:55:34;26.70;98.60
37702;DHT22;23548;51.196;6.838;2022-08-01T11:58:05;26.80;98.70
37702;DHT22;23548;51.196;6.838;2022-08-01T12:00:32;26.60;98.80
37702;DHT22;23548;51.196;6.838;2022-08-01T12:03:00;26.80;98.70
37702;DHT22;23548;51.196;6.838;2022-08-01T12:05:28;26.70;98.10
37702;DHT22;23548;51.196;6.838;2022-08-01T12:07:55;26.80;98.10
37702;DHT22;23548;51.196;6.838;2022-08-01T12:10:24;27.20;97.10
37702;DHT22;23548;51.196;6.838;2022-08-01T12:12:58;27.60;96.60
37702;DHT22;23548;51.196;6.838;2022-08-01T12:15:30;27.80;96.60
37702;DHT22;23548;51.196;6.838;2022-08-01T12:17:58;27.90;96.50
37702;DHT22;23548;51.196;6.838;2022-08-01T12:20:38;27.70;96.60
37702;DHT22;23548;51.196;6.838;2022-08-01T12:23:06;27.50;97.20
37702;DHT22;23548;51.196;6.838;2022-08-01T12:25:33;27.00;98.00
37702;DHT22;23548;51.196;6.838;2022-08-01T12:28:01;27.10;98.10
37702;DHT22;23548;51.196;6.838;2022-08-01T12:30:27;27.00;98.50
37702;DHT22;23548;51.196;6.838;2022-08-01T12:32:54;26.90;98.50
37702;DHT22;23548;51.196;6.838;2022-08-01T12:35:25;26.70;98.60
37702;DHT22;23548;51.196;6.838;2022-08-01T12:37:58;26.60;98.00
37702;DHT22;23548;51.196;6.838;2022-08-01T12:40:30;26.70;97.80
37702;DHT22;23548;51.196;6.838;2022-08-01T12:43:01;27.10;96.70
37702;DHT22;23548;51.196;6.838;2022-08-01T12:48:01;27.30;95.10
37702;DHT22;23548;51.196;6.838;2022-08-01T12:50:31;27.10;94.80
37702;DHT22;23548;51.196;6.838;2022-08-01T12:52:58;27.00;95.10
37702;DHT22;23548;51.196;6.838;2022-08-01T12:55:25;27.20;95.40
37702;DHT22;23548;51.196;6.838;2022-08-01T12:58:11;27.20;95.50
37702;DHT22;23548;51.196;6.838;2022-08-01T13:00:39;27.00;95.20
37702;DHT22;23548;51.196;6.838;2022-08-01T13:03:11;27.30;95.10
37702;DHT22;23548;51.196;6.838;2022-08-01T13:05:46;27.40;94.80
37702;DHT22;23548;51.196;6.838;2022-08-01T13:08:15;27.70;94.80
37702;DHT22;23548;51.196;6.838;2022-08-01T13:10:42;27.90;94.40
37702;DHT22;23548;51.196;6.838;2022-08-01T13:13:08;28.30;94.30
37702;DHT22;23548;51.196;6.838;2022-08-01T13:15:37;28.40;92.80
37702;DHT22;23548;51.196;6.838;2022-08-01T13:18:30;28.10;93.60
37702;DHT22;23548;51.196;6.838;2022-08-01T13:21:25;28.20;92.70
37702;DHT22;23548;51.196;6.838;2022-08-01T13:24:09;28.20;92.70
37702;DHT22;23548;51.196;6.838;2022-08-01T13:32:17;27.70;95.60
37702;DHT22;23548;51.196;6.838;2022-08-01T13:34:43;28.00;95.30
37702;DHT22;23548;51.196;6.838;2022-08-01T13:37:08;28.10;94.70
37702;DHT22;23548;51.196;6.838;2022-08-01T13:39:34;27.70;94.90
37702;DHT22;23548;51.196;6.838;2022-08-01T13:42:07;28.40;94.30
37702;DHT22;23548;51.196;6.838;2022-08-01T13:44:32;29.60;92.80
37702;DHT22;23548;51.196;6.838;2022-08-01T13:46:58;28.90;92.30
37702;DHT22;23548;51.196;6.838;2022-08-01T13:49:24;28.30;92.60
37702;DHT22;23548;51.196;6.838;2022-08-01T13:51:50;28.10;92.70
37702;DHT22;23548;51.196;6.838;2022-08-01T13:54:16;28.20;93.00
37702;DHT22;23548;51.196;6.838;2022-08-01T13:56:42;28.10;93.10
37702;DHT22;23548;51.196;6.838;2022-08-01T13:59:08;28.50;92.90
37702;DHT22;23548;51.196;6.838;2022-08-01T14:01:34;29.50;91.80
37702;DHT22;23548;51.196;6.838;2022-08-01T14:04:01;29.50;91.80
37702;DHT22;23548;51.196;6.838;2022-08-01T14:06:27;29.10;91.80
37702;DHT22;23548;51.196;6.838;2022-08-01T14:08:53;29.10;92.20
37702;DHT22;23548;51.196;6.838;2022-08-01T14:11:18;29.20;91.60
37702;DHT22;23548;51.196;6.838;2022-08-01T14:13:44;28.90;91.30
37702;DHT22;23548;51.196;6.838;2022-08-01T14:16:11;28.50;93.20
37702;DHT22;23548;51.196;6.838;2022-08-01T14:18:37;27.90;93.80
37702;DHT22;23548;51.196;6.838;2022-08-01T14:21:03;28.40;93.30
37702;DHT22;23548;51.196;6.838;2022-08-01T14:23:28;29.00;92.50
37702;DHT22;23548;51.196;6.838;2022-08-01T14:25:54;29.20;92.60
37702;DHT22;23548;51.196;6.838;2022-08-01T14:28:20;29.70;91.30
37702;DHT22;23548;51.196;6.838;2022-08-01T14:30:46;29.30;91.80
37702;DHT22;23548;51.196;6.838;2022-08-01T14:33:13;29.50;91.30
37702;DHT22;23548;51.196;6.838;2022-08-01T14:35:39;29.50;91.30
37702;DHT22;23548;51.196;6.838;2022-08-01T14:38:05;29.30;91.90
37702;DHT22;23548;51.196;6.838;2022-08-01T14:40:31;29.00;92.40
37702;DHT22;23548;51.196;6.838;2022-08-01T14:42:56;28.50;93.30
37702;DHT22;23548;51.196;6.838;2022-08-01T14:45:22;28.10;94.10
37702;DHT22;23548;51.196;6.838;2022-08-01T14:47:48;28.00;94.30
37702;DHT22;23548;51.196;6.838;2022-08-01T14:50:15;27.80;94.30
37702;DHT22;23548;51.196;6.838;2022-08-01T14:52:42;27.70;94.20
37702;DHT22;23548;51.196;6.838;2022-08-01T14:55:09;27.60;94.50
37702;DHT22;23548;51.196;6.838;2022-08-01T14:57:36;28.20;94.00
37702;DHT22;23548;51.196;6.838;2022-08-01T15:00:08;28.60;93.10
37702;DHT22;23548;51.196;6.838;2022-08-01T15:02:38;28.60;93.50
37702;DHT22;23548;51.196;6.838;2022-08-01T15:05:04;29.40;93.00
37702;DHT22;23548;51.196;6.838;2022-08-01T15:07:30;29.90;92.10
37702;DHT22;23548;51.196;6.838;2022-08-01T15:09:56;29.70;92.00
37702;DHT22;23548;51.196;6.838;2022-08-01T15:12:22;29.40;93.20
37702;DHT22;23548;51.196;6.838;2022-08-01T15:14:48;29.00;93.30
37702;DHT22;23548;51.196;6.838;2022-08-01T15:17:25;28.80;93.50
37702;DHT22;23548;51.196;6.838;2022-08-01T15:19:53;28.60;93.20
37702;DHT22;23548;51.196;6.838;2022-08-01T15:22:20;29.10;92.90
37702;DHT22;23548;51.196;6.838;2022-08-01T15:24:47;29.40;92.50
37702;DHT22;23548;51.196;6.838;2022-08-01T15:27:13;28.90;92.60
37702;DHT22;23548;51.196;6.838;2022-08-01T15:29:39;28.50;93.20
37702;DHT22;23548;51.196;6.838;2022-08-01T15:32:05;27.60;94.30
37702;DHT22;23548;51.196;6.838;2022-08-01T15:34:32;27.00;95.00
37702;DHT22;23548;51.196;6.838;2022-08-01T15:36:58;27.00;95.20
37702;DHT22;23548;51.196;6.838;2022-08-01T15:39:23;26.90;95.50
37702;DHT22;23548;51.196;6.838;2022-08-01T15:41:50;26.80;95.80
37702;DHT22;23548;51.196;6.838;2022-08-01T15:44:16;26.90;95.50
37702;DHT22;23548;51.196;6.838;2022-08-01T15:46:47;26.60;95.60
37702;DHT22;23548;51.196;6.838;2022-08-01T15:49:13;26.40;96.10
37702;DHT22;23548;51.196;6.838;2022-08-01T15:51:40;26.20;96.50
37702;DHT22;23548;51.196;6.838;2022-08-01T15:54:06;26.10;96.50
37702;DHT22;23548;51.196;6.838;2022-08-01T15:56:33;26.00;96.60
37702;DHT22;23548;51.196;6.838;2022-08-01T15:58:59;26.00;96.60
37702;DHT22;23548;51.196;6.838;2022-08-01T16:01:25;26.20;96.70
37702;DHT22;23548;51.196;6.838;2022-08-01T16:03:55;26.50;96.20
37702;DHT22;23548;51.196;6.838;2022-08-01T16:06:21;26.60;95.80
37702;DHT22;23548;51.196;6.838;2022-08-01T16:08:47;26.80;96.10
37702;DHT22;23548;51.196;6.838;2022-08-01T16:11:13;26.90;95.60
37702;DHT22;23548;51.196;6.838;2022-08-01T16:13:39;26.80;95.80
37702;DHT22;23548;51.196;6.838;2022-08-01T16:16:07;26.50;95.90